createdAt,value
2023-08-10T00:00:10.002Z,13.20
2023-08-10T00:02:57.775Z,13.20
2023-08-10T00:05:25.593Z,13.20
2023-08-10T00:07:53.295Z,13.20
2023-08-10T00:10:21.032Z,13.20
2023-08-10T00:12:48.773Z,13.20
2023-08-10T00:15:16.560Z,13.20
2023-08-10T00:17:44.407Z,13.20
2023-08-10T00:20:12.426Z,13.12
2023-08-10T00:22:40.157Z,13.10
2023-08-10T00:25:08.913Z,13.10
2023-08-10T00:27:39.722Z,13.10
2023-08-10T00:30:09.394Z,13.20
2023-08-10T00:32:38.219Z,13.20
2023-08-10T00:35:06.934Z,13.10
2023-08-10T00:37:34.693Z,13.10
2023-08-10T00:40:03.457Z,13.10
2023-08-10T00:42:32.191Z,13.10
2023-08-10T00:44:59.935Z,13.04
2023-08-10T00:47:28.840Z,13.00
2023-08-10T00:49:56.912Z,13.00
2023-08-10T00:52:24.803Z,13.00
2023-08-10T00:54:52.760Z,13.00
2023-08-10T00:57:21.439Z,12.94
2023-08-10T00:59:49.467Z,12.92
2023-08-10T01:02:17.604Z,12.90
2023-08-10T01:04:45.497Z,12.90
2023-08-10T01:07:26.704Z,12.90
2023-08-10T01:10:07.377Z,12.90
2023-08-10T01:12:49.620Z,12.90
2023-08-10T01:15:55.917Z,12.90
2023-08-10T01:18:28.505Z,13.00
2023-08-10T01:21:00.638Z,13.00
2023-08-10T01:23:36.803Z,13.00
2023-08-10T01:26:06.405Z,13.00
2023-08-10T01:28:35.484Z,12.96
2023-08-10T01:31:03.657Z,12.92
2023-08-10T01:33:32.129Z,12.90
2023-08-10T01:35:59.900Z,12.90
2023-08-10T01:38:27.687Z,12.90
2023-08-10T01:40:55.496Z,12.82
2023-08-10T01:43:23.264Z,12.90
2023-08-10T01:45:56.058Z,12.90
2023-08-10T01:48:33.433Z,12.90
2023-08-10T01:51:07.872Z,12.90
2023-08-10T01:53:38.356Z,12.90
2023-08-10T01:56:06.198Z,12.90
2023-08-10T01:58:34.180Z,12.90
2023-08-10T02:01:02.676Z,12.90
2023-08-10T02:03:30.543Z,12.90
2023-08-10T02:05:58.414Z,12.90
2023-08-10T02:08:26.241Z,12.90
2023-08-10T02:10:54.016Z,12.90
2023-08-10T02:13:21.814Z,12.90
2023-08-10T02:15:51.402Z,12.90
2023-08-10T02:18:19.931Z,12.90
2023-08-10T02:20:47.965Z,12.90
2023-08-10T02:23:15.701Z,12.88
2023-08-10T02:25:43.450Z,12.80
2023-08-10T02:28:11.290Z,12.82
2023-08-10T02:30:39.767Z,12.84
2023-08-10T02:33:07.526Z,12.90
2023-08-10T02:35:35.291Z,12.90
2023-08-10T02:38:03.171Z,12.90
2023-08-10T02:40:31.022Z,12.90
2023-08-10T02:42:58.770Z,12.96
2023-08-10T02:45:26.536Z,13.00
2023-08-10T02:47:54.278Z,13.00
2023-08-10T02:50:22.169Z,13.00
2023-08-10T02:52:50.463Z,12.92
2023-08-10T02:55:18.631Z,12.98
2023-08-10T02:57:46.378Z,12.90
2023-08-10T03:00:14.842Z,12.90
2023-08-10T03:02:42.795Z,12.80
2023-08-10T03:05:12.365Z,12.80
2023-08-10T03:07:40.128Z,12.80
2023-08-10T03:10:10.696Z,12.80
2023-08-10T03:12:39.515Z,12.76
2023-08-10T03:15:10.569Z,12.70
2023-08-10T03:17:39.526Z,12.70
2023-08-10T03:20:18.152Z,12.70
2023-08-10T03:22:46.585Z,12.70
2023-08-10T03:25:15.925Z,12.70
2023-08-10T03:27:43.804Z,12.64
2023-08-10T03:30:12.093Z,12.62
2023-08-10T03:32:39.894Z,12.70
2023-08-10T03:35:08.328Z,12.70
2023-08-10T03:37:36.150Z,12.70
2023-08-10T03:40:05.022Z,12.62
2023-08-10T03:42:32.728Z,12.60
2023-08-10T03:45:00.765Z,12.60
2023-08-10T03:47:28.725Z,12.60
2023-08-10T03:49:56.610Z,12.58
2023-08-10T03:52:24.829Z,12.50
2023-08-10T03:54:52.751Z,12.50
2023-08-10T03:57:20.535Z,12.50
2023-08-10T03:59:48.243Z,12.50
2023-08-10T04:02:16.012Z,12.50
2023-08-10T04:04:43.768Z,12.50
2023-08-10T04:07:11.589Z,12.60
2023-08-10T04:09:40.974Z,12.60
2023-08-10T04:12:08.842Z,12.60
2023-08-10T04:14:36.598Z,12.60
2023-08-10T04:17:04.567Z,12.60
2023-08-10T04:19:32.438Z,12.60
2023-08-10T04:22:00.286Z,12.64
2023-08-10T04:24:27.996Z,12.70
2023-08-10T04:26:55.771Z,12.70
2023-08-10T04:29:27.759Z,12.70
2023-08-10T04:31:55.970Z,12.72
2023-08-10T04:34:23.697Z,12.80
2023-08-10T04:36:51.534Z,12.80
2023-08-10T04:39:19.296Z,12.70
2023-08-10T04:41:47.048Z,12.70
2023-08-10T04:44:14.815Z,12.70
2023-08-10T04:46:42.579Z,12.70
2023-08-10T04:49:10.366Z,12.78
2023-08-10T04:51:38.251Z,12.90
2023-08-10T04:54:06.102Z,12.96
2023-08-10T04:56:33.817Z,12.90
2023-08-10T04:59:01.537Z,12.90
2023-08-10T05:01:30.293Z,13.00
2023-08-10T05:03:58.170Z,13.00
2023-08-10T05:06:25.969Z,12.94
2023-08-10T05:08:53.767Z,12.90
2023-08-10T05:11:21.455Z,12.92
2023-08-10T05:13:49.202Z,12.92
2023-08-10T05:16:16.977Z,12.94
2023-08-10T05:18:44.766Z,12.94
2023-08-10T05:21:12.526Z,13.00
2023-08-10T05:23:40.301Z,13.00
2023-08-10T05:26:09.492Z,13.02
2023-08-10T05:28:37.438Z,13.10
2023-08-10T05:31:05.231Z,13.10
2023-08-10T05:33:33.149Z,13.20
2023-08-10T05:36:00.925Z,13.20
2023-08-10T05:38:28.792Z,13.30
2023-08-10T05:40:57.446Z,13.32
2023-08-10T05:43:25.321Z,13.40
2023-08-10T05:45:53.141Z,13.50
2023-08-10T05:48:20.909Z,13.50
2023-08-10T05:50:48.748Z,13.60
2023-08-10T05:53:16.713Z,13.60
2023-08-10T05:55:44.538Z,13.64
2023-08-10T05:58:12.280Z,13.70
2023-08-10T06:00:40.923Z,13.78
2023-08-10T06:03:09.458Z,13.84
2023-08-10T06:05:37.446Z,13.92
2023-08-10T06:08:08.579Z,14.00
2023-08-10T06:10:36.982Z,14.10
2023-08-10T06:13:04.990Z,14.20
2023-08-10T06:15:32.802Z,14.30
2023-08-10T06:18:00.679Z,14.40
2023-08-10T06:20:28.671Z,14.40
2023-08-10T06:22:56.496Z,14.50
2023-08-10T06:25:25.738Z,14.50
2023-08-10T06:27:54.534Z,14.60
2023-08-10T06:30:22.449Z,14.68
2023-08-10T06:32:50.282Z,14.80
2023-08-10T06:35:21.564Z,14.90
2023-08-10T06:37:51.278Z,15.00
2023-08-10T06:40:21.334Z,15.20
2023-08-10T06:42:49.368Z,15.40
2023-08-10T06:45:17.203Z,15.50
2023-08-10T06:47:45.073Z,15.70
2023-08-10T06:50:13.548Z,15.80
2023-08-10T06:52:43.071Z,15.98
2023-08-10T06:55:13.055Z,16.10
2023-08-10T06:57:42.085Z,16.20
2023-08-10T07:02:45.861Z,16.40
2023-08-10T07:05:14.457Z,16.50
2023-08-10T07:07:42.722Z,16.60
2023-08-10T07:10:11.049Z,16.70
2023-08-10T07:12:38.829Z,16.80
2023-08-10T07:15:08.810Z,16.90
2023-08-10T07:17:37.095Z,17.00
2023-08-10T07:20:06.834Z,17.10
2023-08-10T07:22:39.749Z,17.20
2023-08-10T07:25:08.231Z,17.36
2023-08-10T07:27:36.569Z,17.40
2023-08-10T07:30:05.386Z,17.50
2023-08-10T07:32:33.322Z,17.50
2023-08-10T07:35:01.138Z,17.60
2023-08-10T07:37:28.882Z,17.70
2023-08-10T07:39:56.582Z,17.80
2023-08-10T07:42:24.417Z,17.90
2023-08-10T07:44:52.200Z,17.90
2023-08-10T07:47:19.992Z,17.90
2023-08-10T07:49:47.726Z,18.00
2023-08-10T07:52:15.471Z,18.10
2023-08-10T07:54:43.306Z,18.10
2023-08-10T07:57:11.085Z,18.20
2023-08-10T07:59:38.824Z,18.20
2023-08-10T08:02:07.605Z,18.30
2023-08-10T08:04:35.722Z,18.30
2023-08-10T08:07:03.811Z,18.40
2023-08-10T08:09:31.572Z,18.50
2023-08-10T08:11:59.346Z,18.60
2023-08-10T08:14:27.151Z,18.70
2023-08-10T08:16:54.993Z,18.72
2023-08-10T08:19:22.777Z,18.80
2023-08-10T08:21:50.540Z,18.88
2023-08-10T08:24:18.461Z,18.90
2023-08-10T08:26:46.297Z,19.00
2023-08-10T08:29:14.044Z,19.06
2023-08-10T08:31:41.900Z,19.10
2023-08-10T08:34:09.894Z,19.20
2023-08-10T08:36:37.690Z,19.30
2023-08-10T08:39:05.673Z,19.34
2023-08-10T08:41:39.661Z,19.40
2023-08-10T08:44:10.068Z,19.50
2023-08-10T08:46:43.679Z,19.50
2023-08-10T08:49:11.560Z,19.40
2023-08-10T08:51:40.175Z,19.50
2023-08-10T08:54:07.976Z,19.48
2023-08-10T08:56:35.691Z,19.38
2023-08-10T08:59:03.569Z,19.20
2023-08-10T09:01:32.074Z,19.10
2023-08-10T09:04:00.534Z,19.00
2023-08-10T09:06:28.680Z,18.90
2023-08-10T09:08:56.432Z,18.70
2023-08-10T09:11:24.615Z,18.60
2023-08-10T09:14:21.578Z,18.50
2023-08-10T09:16:49.402Z,18.40
2023-08-10T09:19:18.280Z,18.30
2023-08-10T09:21:46.671Z,18.20
2023-08-10T09:24:14.401Z,18.10
2023-08-10T09:26:42.293Z,18.08
2023-08-10T09:29:10.140Z,18.00
2023-08-10T09:31:44.162Z,17.94
2023-08-10T09:34:15.004Z,18.00
2023-08-10T09:36:54.895Z,18.10
2023-08-10T09:39:22.986Z,18.20
2023-08-10T09:41:57.576Z,18.30
2023-08-10T09:44:25.788Z,18.40
2023-08-10T09:46:59.299Z,18.54
2023-08-10T09:49:27.746Z,18.64
2023-08-10T09:52:00.157Z,18.70
2023-08-10T09:54:29.684Z,18.80
2023-08-10T09:56:58.831Z,18.90
2023-08-10T09:59:27.114Z,18.94
2023-08-10T10:01:56.489Z,19.00
2023-08-10T10:04:27.984Z,19.02
2023-08-10T10:06:59.024Z,19.10
2023-08-10T10:09:31.445Z,19.18
2023-08-10T10:12:01.644Z,19.10
2023-08-10T10:14:29.887Z,19.10
2023-08-10T10:16:58.363Z,19.10
2023-08-10T10:19:27.173Z,19.00
2023-08-10T10:21:54.920Z,19.00
2023-08-10T10:24:22.648Z,19.00
2023-08-10T10:27:11.581Z,19.10
2023-08-10T10:29:47.236Z,19.20
2023-08-10T10:32:17.961Z,19.30
2023-08-10T10:34:47.048Z,19.30
2023-08-10T10:37:16.251Z,19.40
2023-08-10T10:39:51.456Z,19.40
2023-08-10T10:42:21.510Z,19.40
2023-08-10T10:45:09.799Z,19.50
2023-08-10T10:47:51.287Z,19.54
2023-08-10T10:50:29.960Z,19.60
2023-08-10T10:53:03.523Z,19.70
2023-08-10T10:55:47.520Z,19.70
2023-08-10T10:58:17.055Z,19.70
2023-08-10T11:00:49.083Z,19.80
2023-08-10T11:03:20.816Z,19.80
2023-08-10T11:05:49.087Z,19.88
2023-08-10T11:08:17.272Z,19.90
2023-08-10T11:10:45.820Z,19.90
2023-08-10T11:13:14.275Z,20.00
2023-08-10T11:15:48.758Z,20.08
2023-08-10T11:18:16.698Z,20.12
2023-08-10T11:20:51.877Z,20.20
2023-08-10T11:23:19.695Z,20.30
2023-08-10T11:25:51.473Z,20.30
2023-08-10T11:28:22.617Z,20.30
2023-08-10T11:30:50.807Z,20.38
2023-08-10T11:33:20.356Z,20.40
2023-08-10T11:35:53.994Z,20.40
2023-08-10T11:38:22.479Z,20.40
2023-08-10T11:40:51.272Z,20.40
2023-08-10T11:43:22.233Z,20.50
2023-08-10T11:45:50.157Z,20.50
2023-08-10T11:48:20.545Z,20.48
2023-08-10T11:50:59.276Z,20.50
2023-08-10T11:53:42.946Z,20.50
2023-08-10T11:56:10.861Z,20.54
2023-08-10T11:58:41.244Z,20.50
2023-08-10T12:01:10.587Z,20.40
2023-08-10T12:03:38.467Z,20.30
2023-08-10T12:06:07.384Z,20.30
2023-08-10T12:08:40.186Z,20.30
2023-08-10T12:11:14.072Z,20.20
2023-08-10T12:13:47.269Z,20.16
2023-08-10T12:16:19.221Z,20.10
2023-08-10T12:18:48.088Z,20.10
2023-08-10T12:21:16.107Z,20.10
2023-08-10T12:23:45.309Z,20.20
2023-08-10T12:26:14.278Z,20.20
2023-08-10T12:28:42.340Z,20.30
2023-08-10T12:31:10.384Z,20.30
2023-08-10T12:33:42.141Z,20.40
2023-08-10T12:36:10.302Z,20.40
2023-08-10T12:38:40.354Z,20.40
2023-08-10T12:41:09.192Z,20.40
2023-08-10T12:43:40.214Z,20.40
2023-08-10T12:46:08.340Z,20.40
2023-08-10T12:48:36.229Z,20.40
2023-08-10T12:51:06.701Z,20.44
2023-08-10T12:53:34.769Z,20.50
2023-08-10T12:56:03.444Z,20.50
2023-08-10T12:58:31.208Z,20.52
2023-08-10T13:00:58.931Z,20.60
2023-08-10T13:03:27.059Z,20.60
2023-08-10T13:05:54.878Z,20.60
2023-08-10T13:08:23.430Z,20.70
2023-08-10T13:10:51.467Z,20.70
2023-08-10T13:13:19.759Z,20.70
2023-08-10T13:15:47.580Z,20.70
2023-08-10T13:18:15.348Z,20.70
2023-08-10T13:20:43.277Z,20.70
2023-08-10T13:23:11.079Z,20.70
2023-08-10T13:25:39.036Z,20.60
2023-08-10T13:28:06.876Z,20.60
2023-08-10T13:30:35.625Z,20.50
2023-08-10T13:33:03.609Z,20.50
2023-08-10T13:35:31.351Z,20.50
2023-08-10T13:37:59.069Z,20.60
2023-08-10T13:40:27.459Z,20.60
2023-08-10T13:42:55.216Z,20.58
2023-08-10T13:45:23.156Z,20.58
2023-08-10T13:47:53.142Z,20.50
2023-08-10T13:50:20.850Z,20.50
2023-08-10T13:52:48.841Z,20.40
2023-08-10T13:55:16.616Z,20.40
2023-08-10T13:57:44.623Z,20.30
2023-08-10T14:00:15.268Z,20.30
2023-08-10T14:02:43.592Z,20.30
2023-08-10T14:05:11.883Z,20.28
2023-08-10T14:07:40.662Z,20.20
2023-08-10T14:10:12.284Z,20.20
2023-08-10T14:12:39.946Z,20.20
2023-08-10T14:15:08.280Z,20.20
2023-08-10T14:17:36.037Z,20.20
2023-08-10T14:20:04.137Z,20.16
2023-08-10T14:22:32.062Z,20.12
2023-08-10T14:24:59.783Z,20.10
2023-08-10T14:27:27.506Z,20.10
2023-08-10T14:29:55.335Z,20.10
2023-08-10T14:32:25.611Z,20.10
2023-08-10T14:34:53.854Z,20.10
2023-08-10T14:37:21.851Z,20.10
2023-08-10T14:39:49.575Z,20.08
2023-08-10T14:42:17.318Z,20.10
2023-08-10T14:44:45.059Z,20.10
2023-08-10T14:47:13.108Z,20.10
2023-08-10T14:49:40.946Z,20.10
2023-08-10T14:52:08.702Z,20.10
2023-08-10T14:54:36.782Z,20.10
2023-08-10T14:57:04.613Z,20.10
2023-08-10T14:59:32.515Z,20.10
2023-08-10T15:02:00.306Z,20.20
2023-08-10T15:04:28.157Z,20.20
2023-08-10T15:06:55.984Z,20.20
2023-08-10T15:09:23.738Z,20.20
2023-08-10T15:11:51.520Z,20.20
2023-08-10T15:14:19.221Z,20.30
2023-08-10T15:16:46.961Z,20.30
2023-08-10T15:19:14.741Z,20.30
2023-08-10T15:21:42.761Z,20.26
2023-08-10T15:24:11.067Z,20.20
2023-08-10T15:26:38.835Z,20.22
2023-08-10T15:29:07.695Z,20.20
2023-08-10T15:31:36.130Z,20.20
2023-08-10T15:34:03.965Z,20.20
2023-08-10T15:36:31.797Z,20.20
2023-08-10T15:38:59.481Z,20.20
2023-08-10T15:41:27.190Z,20.20
2023-08-10T15:43:54.963Z,20.18
2023-08-10T15:46:23.731Z,20.20
2023-08-10T15:48:51.480Z,20.20
2023-08-10T15:51:19.342Z,20.14
2023-08-10T15:53:47.348Z,20.10
2023-08-10T15:56:15.078Z,20.10
2023-08-10T15:58:42.842Z,20.10
2023-08-10T16:01:10.610Z,20.10
2023-08-10T16:03:38.945Z,20.10
2023-08-10T16:06:06.738Z,20.00
2023-08-10T16:08:34.654Z,20.00
2023-08-10T16:11:02.386Z,20.00
2023-08-10T16:13:30.585Z,19.98
2023-08-10T16:15:58.438Z,19.90
2023-08-10T16:18:26.184Z,19.90
2023-08-10T16:20:53.909Z,19.90
2023-08-10T16:23:21.683Z,19.90
2023-08-10T16:25:52.118Z,19.90
2023-08-10T16:28:20.419Z,19.90
2023-08-10T16:30:48.288Z,19.90
2023-08-10T16:33:16.142Z,19.90
2023-08-10T16:35:43.856Z,19.88
2023-08-10T16:38:11.590Z,19.84
2023-08-10T16:40:39.384Z,19.80
2023-08-10T16:43:07.155Z,19.80
2023-08-10T16:45:34.902Z,19.80
2023-08-10T16:48:02.744Z,19.80
2023-08-10T16:50:30.705Z,19.80
2023-08-10T16:52:58.976Z,19.80
2023-08-10T16:55:26.998Z,19.80
2023-08-10T16:57:55.631Z,19.70
2023-08-10T17:00:25.577Z,19.70
2023-08-10T17:02:53.911Z,19.70
2023-08-10T17:05:21.960Z,19.70
2023-08-10T17:07:49.748Z,19.60
2023-08-10T17:10:17.814Z,19.60
2023-08-10T17:12:45.919Z,19.60
2023-08-10T17:15:14.269Z,19.50
2023-08-10T17:17:42.252Z,19.50
2023-08-10T17:20:11.384Z,19.40
2023-08-10T17:22:39.421Z,19.40
2023-08-10T17:25:09.427Z,19.40
2023-08-10T17:27:37.226Z,19.40
2023-08-10T17:30:06.637Z,19.34
2023-08-10T17:32:34.623Z,19.30
2023-08-10T17:35:02.582Z,19.28
2023-08-10T17:37:30.780Z,19.20
2023-08-10T17:39:58.777Z,19.10
2023-08-10T17:42:26.599Z,19.10
2023-08-10T17:44:56.271Z,19.00
2023-08-10T17:47:24.221Z,18.90
2023-08-10T17:49:52.628Z,18.82
2023-08-10T17:52:20.818Z,18.80
2023-08-10T17:54:48.833Z,18.70
2023-08-10T17:57:16.547Z,18.60
2023-08-10T17:59:44.303Z,18.60
2023-08-10T18:02:12.148Z,18.50
2023-08-10T18:04:39.923Z,18.46
2023-08-10T18:07:07.658Z,18.40
2023-08-10T18:09:35.490Z,18.32
2023-08-10T18:12:03.662Z,18.30
2023-08-10T18:14:31.464Z,18.20
2023-08-10T18:16:59.186Z,18.20
2023-08-10T18:19:26.956Z,18.18
2023-08-10T18:21:54.673Z,18.10
2023-08-10T18:24:22.341Z,18.10
2023-08-10T18:26:50.217Z,18.00
2023-08-10T18:29:18.236Z,18.00
2023-08-10T18:31:46.052Z,17.90
2023-08-10T18:34:13.842Z,17.90
2023-08-10T18:36:41.521Z,17.82
2023-08-10T18:39:09.384Z,17.80
2023-08-10T18:41:37.119Z,17.70
2023-08-10T18:44:05.390Z,17.70
2023-08-10T18:46:33.113Z,17.60
2023-08-10T18:49:00.885Z,17.60
2023-08-10T18:51:28.636Z,17.50
2023-08-10T18:53:56.761Z,17.50
2023-08-10T18:56:24.491Z,17.40
2023-08-10T18:58:52.346Z,17.40
2023-08-10T19:01:20.177Z,17.32
2023-08-10T19:03:48.682Z,17.30
2023-08-10T19:06:16.436Z,17.28
2023-08-10T19:08:44.168Z,17.20
2023-08-10T19:11:12.086Z,17.20
2023-08-10T19:13:40.036Z,17.20
2023-08-10T19:16:08.086Z,17.20
2023-08-10T19:18:35.958Z,17.18
2023-08-10T19:21:07.506Z,17.10
2023-08-10T19:23:35.316Z,17.10
2023-08-10T19:26:03.837Z,17.08
2023-08-10T19:28:31.711Z,17.00
2023-08-10T19:31:04.347Z,17.00
2023-08-10T19:33:34.046Z,16.98
2023-08-10T19:36:02.465Z,16.90
2023-08-10T19:38:30.476Z,16.90
2023-08-10T19:40:58.230Z,16.90
2023-08-10T19:43:26.084Z,16.90
2023-08-10T19:45:53.983Z,16.90
2023-08-10T19:48:21.809Z,16.88
2023-08-10T19:50:50.129Z,16.80
2023-08-10T19:53:18.277Z,16.80
2023-08-10T19:55:46.245Z,16.80
2023-08-10T19:58:14.011Z,16.70
2023-08-10T20:00:44.961Z,16.70
2023-08-10T20:03:12.760Z,16.70
2023-08-10T20:05:40.505Z,16.60
2023-08-10T20:08:08.273Z,16.60
2023-08-10T20:10:36.160Z,16.60
2023-08-10T20:13:04.124Z,16.60
2023-08-10T20:15:35.510Z,16.50
2023-08-10T20:18:04.348Z,16.50
2023-08-10T20:20:32.369Z,16.50
2023-08-10T20:23:01.116Z,16.40
2023-08-10T20:25:29.581Z,16.40
2023-08-10T20:28:04.658Z,16.34
2023-08-10T20:30:34.216Z,16.30
2023-08-10T20:33:01.988Z,16.30
2023-08-10T20:35:31.935Z,16.30
2023-08-10T20:37:59.764Z,16.20
2023-08-10T20:40:27.650Z,16.20
2023-08-10T20:42:55.614Z,16.14
2023-08-10T20:45:23.511Z,16.10
2023-08-10T20:47:51.271Z,16.10
2023-08-10T20:50:19.952Z,16.02
2023-08-10T20:52:47.700Z,16.00
2023-08-10T20:55:15.416Z,16.00
2023-08-10T20:57:43.315Z,15.92
2023-08-10T21:00:11.672Z,15.90
2023-08-10T21:02:39.484Z,15.90
2023-08-10T21:05:07.746Z,15.82
2023-08-10T21:07:36.861Z,15.80
2023-08-10T21:10:04.881Z,15.80
2023-08-10T21:12:32.630Z,15.70
2023-08-10T21:15:08.141Z,15.70
2023-08-10T21:17:37.566Z,15.64
2023-08-10T21:20:07.321Z,15.60
2023-08-10T21:22:35.093Z,15.60
2023-08-10T21:25:02.956Z,15.60
2023-08-10T21:27:30.818Z,15.56
2023-08-10T21:29:58.675Z,15.50
2023-08-10T21:32:26.332Z,15.50
2023-08-10T21:34:54.161Z,15.50
2023-08-10T21:37:22.026Z,15.40
2023-08-10T21:39:50.811Z,15.40
2023-08-10T21:42:18.617Z,15.40
2023-08-10T21:44:46.326Z,15.38
2023-08-10T21:47:14.097Z,15.30
2023-08-10T21:49:41.863Z,15.30
2023-08-10T21:52:10.129Z,15.20
2023-08-10T21:54:37.853Z,15.20
2023-08-10T21:57:06.062Z,15.10
2023-08-10T21:59:34.188Z,15.10
2023-08-10T22:02:02.220Z,15.02
2023-08-10T22:04:30.137Z,15.00
2023-08-10T22:06:57.966Z,15.00
2023-08-10T22:09:25.699Z,14.90
2023-08-10T22:11:53.430Z,14.90
2023-08-10T22:14:21.176Z,14.90
2023-08-10T22:16:48.951Z,14.88
2023-08-10T22:19:16.800Z,14.82
2023-08-10T22:21:44.717Z,14.80
2023-08-10T22:24:12.513Z,14.80
2023-08-10T22:26:40.246Z,14.80
2023-08-10T22:29:09.282Z,14.80
2023-08-10T22:31:37.052Z,14.70
2023-08-10T22:34:04.804Z,14.70
2023-08-10T22:36:32.610Z,14.70
2023-08-10T22:39:00.328Z,14.70
2023-08-10T22:41:28.158Z,14.70
2023-08-10T22:43:55.931Z,14.70
2023-08-10T22:46:23.853Z,14.60
2023-08-10T22:48:51.595Z,14.60
2023-08-10T22:51:19.974Z,14.60
2023-08-10T22:53:48.188Z,14.60
2023-08-10T22:56:15.941Z,14.60
2023-08-10T22:58:43.946Z,14.52
2023-08-10T23:01:12.720Z,14.50
2023-08-10T23:03:43.853Z,14.50
2023-08-10T23:06:12.379Z,14.50
2023-08-10T23:08:40.615Z,14.46
2023-08-10T23:11:08.374Z,14.50
2023-08-10T23:13:36.090Z,14.40
2023-08-10T23:16:04.026Z,14.40
2023-08-10T23:18:31.814Z,14.40
2023-08-10T23:21:01.467Z,14.40
2023-08-10T23:23:29.517Z,14.36
2023-08-10T23:25:57.350Z,14.30
2023-08-10T23:28:25.108Z,14.30
2023-08-10T23:30:54.771Z,14.30
2023-08-10T23:33:24.799Z,14.30
2023-08-10T23:35:52.798Z,14.20
2023-08-10T23:38:20.559Z,14.20
2023-08-10T23:40:48.214Z,14.20
2023-08-10T23:43:15.941Z,14.20
2023-08-10T23:45:43.704Z,14.20
2023-08-10T23:48:12.409Z,14.12
2023-08-10T23:50:40.540Z,14.10
2023-08-10T23:53:08.304Z,14.10
2023-08-10T23:55:36.070Z,14.10
2023-08-10T23:58:04.298Z,14.10
